Gurli — SLEG — position and weather

sailwx.info

Track history (hours):
 
Tides and Currents Weather Stations Pressure Air Temp Water Temp Dewpoint Dewpoint Depression Visibility Wind Speed Wind Dir Waves Ship Positions

Gurli

Last reported at 2017-Feb-19 14:29 UTC. Time now 2017-Feb-19 14:36 UTC.
Position N 59°20' E 018°05'.

Length 21 m.

Type: Passenger vessel. MMSI: 265687640.

Date/timePositionNaut miles runAvg speedWind from/ knotsBaromVisibWave heightAir tempDewpointWater temp
2017-Feb-19 14:29N 59°20' E 018°05'2 2.6
2017-Feb-19 13:32N 59°20' E 018°09'2 2.4
2017-Feb-19 12:33N 59°20' E 018°05'1 1.3
2017-Feb-19 11:33N 59°19' E 018°07'1 0.8
2017-Feb-19 10:33N 59°19' E 018°09'1 0.6
2017-Feb-19 09:33N 59°19' E 018°07'1 0.9
2017-Feb-19 08:33N 59°19' E 018°09'2 2.2
2017-Feb-19 07:31N 59°20' E 018°05'0 0.0
2017-Feb-19 06:31N 59°20' E 018°05'0 0.0
2017-Feb-19 05:31N 59°20' E 018°05'0 0.0
2017-Feb-19 04:31N 59°20' E 018°05'0 0.0
2017-Feb-19 03:31N 59°20' E 018°05'0 0.0
2017-Feb-19 02:31N 59°20' E 018°05'0 0.0
2017-Feb-19 01:31N 59°20' E 018°05'0 0.0
2017-Feb-19 00:31N 59°20' E 018°05'0 0.0
2017-Feb-18 23:31N 59°20' E 018°05'0 0.0
2017-Feb-18 22:31N 59°20' E 018°05'0 0.0
2017-Feb-18 21:28N 59°20' E 018°05'0 0.0
2017-Feb-18 20:31N 59°20' E 018°05'0 0.0
2017-Feb-18 19:31N 59°20' E 018°05'0 0.2
2017-Feb-18 18:29N 59°20' E 018°05'2 2.6
2017-Feb-18 17:33N 59°20' E 018°09'2 2.3
2017-Feb-18 16:32N 59°20' E 018°05'2 2.4
2017-Feb-18 15:32N 59°20' E 018°09'2 2.4
2017-Feb-18 14:32N 59°20' E 018°05'2 2.4
2017-Feb-18 13:33N 59°20' E 018°09'2 2.4
2017-Feb-18 12:33N 59°20' E 018°05'2 1.7
2017-Feb-18 11:33N 59°19' E 018°07'0 0.4
2017-Feb-18 10:33N 59°19' E 018°08'0 0.4
2017-Feb-18 09:33N 59°19' E 018°07'1 0.7
2017-Feb-18 08:33N 59°19' E 018°09'2 2.1
2017-Feb-18 07:33N 59°20' E 018°05'0 0.0
2017-Feb-18 06:30N 59°20' E 018°05'0 0.0
2017-Feb-18 05:33N 59°20' E 018°05'0 0.0
2017-Feb-18 04:33N 59°20' E 018°05'0 0.0
2017-Feb-18 03:33N 59°20' E 018°05'0 0.0
2017-Feb-18 02:30N 59°20' E 018°05'0 0.0
2017-Feb-18 01:33N 59°20' E 018°05'0 0.0
2017-Feb-18 00:33N 59°20' E 018°05'0 0.0
2017-Feb-17 23:30N 59°20' E 018°05'0 0.0
2017-Feb-17 22:33N 59°20' E 018°05'0 0.0
2017-Feb-17 21:30N 59°20' E 018°05'0 0.0
2017-Feb-17 20:34N 59°20' E 018°05'0 0.0
2017-Feb-17 19:34N 59°20' E 018°05'0 0.0
2017-Feb-17 18:33N 59°20' E 018°05'2 1.8
2017-Feb-17 17:32N 59°19' E 018°08'0 0.0
2017-Feb-17 16:33N 59°19' E 018°08'1 0.7
2017-Feb-17 15:33N 59°19' E 018°10'2 1.6
2017-Feb-17 14:33N 59°19' E 018°06'1 1.5
2017-Feb-17 13:33N 59°19' E 018°09'1 1.4
2017-Feb-17 12:33N 59°19' E 018°07'2 1.5
2017-Feb-17 11:33N 59°19' E 018°10'2 1.5
2017-Feb-17 10:33N 59°19' E 018°07'2 1.5
2017-Feb-17 09:33N 59°19' E 018°10'1 1.5
2017-Feb-17 08:33N 59°19' E 018°07'2 1.5
2017-Feb-17 07:33N 59°20' E 018°09'2 1.6
2017-Feb-17 06:34N 59°19' E 018°07'0 0.4
2017-Feb-17 05:33N 59°19' E 018°07'1 1.4
2017-Feb-17 04:31N 59°20' E 018°05'0 0.0
2017-Feb-17 03:31N 59°20' E 018°05'0 0.0
2017-Feb-17 02:31N 59°20' E 018°05'0 0.0
2017-Feb-17 01:31N 59°20' E 018°05'0 0.0
2017-Feb-17 00:31N 59°20' E 018°05'0 0.0
2017-Feb-16 23:31N 59°20' E 018°05'0 0.0
2017-Feb-16 22:28N 59°20' E 018°05'0 0.0
2017-Feb-16 21:31N 59°20' E 018°05'0 0.0
2017-Feb-16 20:31N 59°20' E 018°05'0 0.0
2017-Feb-16 19:25N 59°20' E 018°05'0 0.0
2017-Feb-16 18:31N 59°20' E 018°05'2 1.9
2017-Feb-16 17:33N 59°19' E 018°08'0 0.0
2017-Feb-16 16:33N 59°19' E 018°08'1 1.0
2017-Feb-16 15:29N 59°20' E 018°09'2 2.0
2017-Feb-16 14:33N 59°19' E 018°06'2 1.7
2017-Feb-16 13:33N 59°19' E 018°10'2 1.5
2017-Feb-16 12:33N 59°19' E 018°07'1 1.4
2017-Feb-16 11:33N 59°19' E 018°09'1 1.4
2017-Feb-16 10:34N 59°19' E 018°07'1 1.1
2017-Feb-16 09:33N 59°19' E 018°09'1 1.1
2017-Feb-16 08:33N 59°19' E 018°07'2 1.6
2017-Feb-16 07:32N 59°20' E 018°09'2 1.6
2017-Feb-16 06:33N 59°19' E 018°07'1 0.6
2017-Feb-16 05:33N 59°19' E 018°08'2 1.5
2017-Feb-16 04:31N 59°20' E 018°05'0 0.0
2017-Feb-16 03:31N 59°20' E 018°05'0 0.0
2017-Feb-16 02:31N 59°20' E 018°05'0 0.0
2017-Feb-16 01:31N 59°20' E 018°05'0 0.0
2017-Feb-16 00:31N 59°20' E 018°05'0 0.0
2017-Feb-15 23:31N 59°20' E 018°05'0 0.0
2017-Feb-15 22:31N 59°20' E 018°05'0 0.0
2017-Feb-15 21:31N 59°20' E 018°05'0 0.0
2017-Feb-15 20:31N 59°20' E 018°05'0 0.0
2017-Feb-15 19:31N 59°20' E 018°05'0 0.0
2017-Feb-15 18:28N 59°20' E 018°05'2 2.0
2017-Feb-15 17:33N 59°19' E 018°08'0 0.0
2017-Feb-15 16:33N 59°19' E 018°08'1 0.8
2017-Feb-15 15:32N 59°20' E 018°09'2 1.8
2017-Feb-15 14:34N 59°19' E 018°06'2 1.6
2017-Feb-15 13:33N 59°19' E 018°09'1 1.4
2017-Feb-15 12:33N 59°19' E 018°07'2 1.5
2017-Feb-15 11:33N 59°19' E 018°10'1 1.5
2017-Feb-15 10:33N 59°19' E 018°07'2 1.5
2017-Feb-15 09:32N 59°19' E 018°10'2 1.5
2017-Feb-15 08:33N 59°19' E 018°07'1 1.5
2017-Feb-15 07:33N 59°19' E 018°09'2 1.6
2017-Feb-15 06:33N 59°19' E 018°06'0 0.4
2017-Feb-15 05:33N 59°19' E 018°07'1 1.4
2017-Feb-15 04:32N 59°20' E 018°05'0 0.0
2017-Feb-15 03:29N 59°20' E 018°05'0 0.0
2017-Feb-15 02:32N 59°20' E 018°05'0 0.0
2017-Feb-15 01:32N 59°20' E 018°05'0 0.0
2017-Feb-15 00:32N 59°20' E 018°05'0 0.0
2017-Feb-14 23:32N 59°20' E 018°05'0 0.0
2017-Feb-14 22:32N 59°20' E 018°05'0 0.0
2017-Feb-14 21:32N 59°20' E 018°05'0 0.0
2017-Feb-14 20:32N 59°20' E 018°05'0 0.0
2017-Feb-14 19:32N 59°20' E 018°05'0 0.0
2017-Feb-14 18:32N 59°20' E 018°05'2 1.8
2017-Feb-14 17:33N 59°19' E 018°08'0 0.1
2017-Feb-14 16:33N 59°19' E 018°08'1 0.7
2017-Feb-14 15:33N 59°19' E 018°09'2 1.7
2017-Feb-14 14:33N 59°19' E 018°06'2 1.7
2017-Feb-14 13:33N 59°19' E 018°10'2 1.8
2017-Feb-14 12:33N 59°19' E 018°06'2 1.8
2017-Feb-14 11:33N 59°19' E 018°10'2 1.5
2017-Feb-14 10:33N 59°19' E 018°07'1 1.3
2017-Feb-14 09:33N 59°19' E 018°09'1 1.3
2017-Feb-14 08:33N 59°19' E 018°07'2 1.6
2017-Feb-14 07:33N 59°20' E 018°09'2 1.8
2017-Feb-14 06:33N 59°19' E 018°06'1 0.6
2017-Feb-14 05:33N 59°19' E 018°07'1 1.4
2017-Feb-14 04:32N 59°20' E 018°05'0 0.0
2017-Feb-14 03:32N 59°20' E 018°05'0 0.0
2017-Feb-14 02:32N 59°20' E 018°05'0 0.0
2017-Feb-14 01:32N 59°20' E 018°05'0 0.0
2017-Feb-14 00:32N 59°20' E 018°05'0 0.0
2017-Feb-13 23:32N 59°20' E 018°05'0 0.0
2017-Feb-13 22:29N 59°20' E 018°05'0 0.0
2017-Feb-13 21:32N 59°20' E 018°05'0 0.0
2017-Feb-13 20:32N 59°20' E 018°05'0 0.0
2017-Feb-13 19:32N 59°20' E 018°05'0 0.0
2017-Feb-13 18:32N 59°20' E 018°05'2 1.9
2017-Feb-13 17:33N 59°19' E 018°08'0 0.2
2017-Feb-13 16:33N 59°19' E 018°08'1 1.1
2017-Feb-13 15:33N 59°20' E 018°09'2 1.7
2017-Feb-13 14:33N 59°19' E 018°06'2 1.6
2017-Feb-13 13:33N 59°19' E 018°10'2 1.7
2017-Feb-13 12:33N 59°19' E 018°06'2 1.7
2017-Feb-13 11:31N 59°20' E 018°10'2 1.9
2017-Feb-13 10:33N 59°19' E 018°06'2 1.7
2017-Feb-13 09:33N 59°19' E 018°10'2 1.5
2017-Feb-13 08:33N 59°19' E 018°07'2 1.8
2017-Feb-13 07:33N 59°20' E 018°09'2 2.0
2017-Feb-13 06:33N 59°19' E 018°06'1 0.7
2017-Feb-13 05:33N 59°19' E 018°07'1 1.4
2017-Feb-13 04:33N 59°20' E 018°05'0 0.0
2017-Feb-13 03:33N 59°20' E 018°05'0 0.0
2017-Feb-13 02:33N 59°20' E 018°05'0 0.0
2017-Feb-13 01:33N 59°20' E 018°05'0 0.0
2017-Feb-13 00:33N 59°20' E 018°05'0 0.0
2017-Feb-12 23:33N 59°20' E 018°05'0 0.0
2017-Feb-12 22:33N 59°20' E 018°05'0 0.0
2017-Feb-12 21:33N 59°20' E 018°05'0 0.0
2017-Feb-12 20:33N 59°20' E 018°05'0 0.0
2017-Feb-12 19:33N 59°20' E 018°05'0 0.3
2017-Feb-12 18:33N 59°20' E 018°05'2 2.4
2017-Feb-12 17:33N 59°20' E 018°09'2 2.4
2017-Feb-12 16:33N 59°20' E 018°05'2 2.4
2017-Feb-12 15:33N 59°20' E 018°09'2 2.3
2017-Feb-12 14:31N 59°20' E 018°05'2 2.5
2017-Feb-12 13:33N 59°21' E 018°09'2 2.4
2017-Feb-12 12:33N 59°20' E 018°05'2 1.6
2017-Feb-12 11:33N 59°19' E 018°07'0 0.4
2017-Feb-12 10:33N 59°19' E 018°08'1 0.7
2017-Feb-12 09:33N 59°19' E 018°07'1 0.7
2017-Feb-12 08:33N 59°19' E 018°08'2 1.8
2017-Feb-12 07:33N 59°20' E 018°05'0 0.0
2017-Feb-12 06:33N 59°20' E 018°05'0 0.0
2017-Feb-12 05:33N 59°20' E 018°05'0 0.0
2017-Feb-12 04:33N 59°20' E 018°05'0 0.0
2017-Feb-12 03:33N 59°20' E 018°05'0 0.0
2017-Feb-12 02:33N 59°20' E 018°05'0 0.0
2017-Feb-12 01:33N 59°20' E 018°05'0 0.0
2017-Feb-12 00:33N 59°20' E 018°05'0 0.0
2017-Feb-11 23:33N 59°20' E 018°05'0 0.0
2017-Feb-11 22:33N 59°20' E 018°05'0 0.0
2017-Feb-11 21:33N 59°20' E 018°05'0 0.0
2017-Feb-11 20:33N 59°20' E 018°05'0 0.0
2017-Feb-11 19:33N 59°20' E 018°05'0 0.2
2017-Feb-11 18:31N 59°20' E 018°05'2 2.5
2017-Feb-11 17:33N 59°20' E 018°09'2 2.3
2017-Feb-11 16:31N 59°20' E 018°05'2 2.5
2017-Feb-11 15:33N 59°20' E 018°09'2 2.4
2017-Feb-11 14:32N 59°20' E 018°05'2 2.5
2017-Feb-11 13:33N 59°20' E 018°09'2 2.4
2017-Feb-11 12:33N 59°20' E 018°05'1 1.3
2017-Feb-11 11:33N 59°19' E 018°07'1 0.6
2017-Feb-11 10:33N 59°19' E 018°08'1 0.5
2017-Feb-11 09:33N 59°19' E 018°07'0 0.5
2017-Feb-11 08:33N 59°19' E 018°08'2 1.8
2017-Feb-11 07:33N 59°20' E 018°05'0 0.0
2017-Feb-11 06:33N 59°20' E 018°05'0 0.0
2017-Feb-11 05:33N 59°20' E 018°05'0 0.0
2017-Feb-11 04:33N 59°20' E 018°05'0 0.0
2017-Feb-11 03:33N 59°20' E 018°05'0 0.0
2017-Feb-11 02:33N 59°20' E 018°05'0 0.0
2017-Feb-11 01:33N 59°20' E 018°05'0 0.0
2017-Feb-11 00:33N 59°20' E 018°05'0 0.0
2017-Feb-10 23:30N 59°20' E 018°05'0 0.0
2017-Feb-10 22:34N 59°20' E 018°05'0 0.0
2017-Feb-10 21:30N 59°20' E 018°05'0 0.0
2017-Feb-10 20:33N 59°20' E 018°05'0 0.0
2017-Feb-10 19:34N 59°20' E 018°05'0 0.0
2017-Feb-10 18:34N 59°20' E 018°05'2 1.8
2017-Feb-10 17:33N 59°19' E 018°08'0 0.1
2017-Feb-10 16:33N 59°19' E 018°08'1 0.9
2017-Feb-10 15:33N 59°19' E 018°10'2 1.8
2017-Feb-10 14:33N 59°19' E 018°06'2 1.7
2017-Feb-10 13:33N 59°19' E 018°09'1 1.5
2017-Feb-10 12:33N 59°19' E 018°07'1 1.3
2017-Feb-10 11:33N 59°19' E 018°09'1 1.3
2017-Feb-10 10:33N 59°19' E 018°07'2 1.5
2017-Feb-10 09:32N 59°19' E 018°10'2 1.5
2017-Feb-10 08:33N 59°19' E 018°07'2 1.6
2017-Feb-10 07:34N 59°19' E 018°10'2 1.6
2017-Feb-10 06:33N 59°19' E 018°06'0 0.3
2017-Feb-10 05:33N 59°19' E 018°07'1 1.3
2017-Feb-10 04:31N 59°20' E 018°05'0 0.0
2017-Feb-10 03:31N 59°20' E 018°05'0 0.0
2017-Feb-10 02:31N 59°20' E 018°05'0 0.0
2017-Feb-10 01:31N 59°20' E 018°05'0 0.0
2017-Feb-10 00:31N 59°20' E 018°05'0 0.0
2017-Feb-09 23:31N 59°20' E 018°05'0 0.0
2017-Feb-09 22:31N 59°20' E 018°05'0 0.0
2017-Feb-09 21:31N 59°20' E 018°05'0 0.0
2017-Feb-09 20:31N 59°20' E 018°05'0 0.0
2017-Feb-09 19:31N 59°20' E 018°05'0 0.0
2017-Feb-09 18:31N 59°20' E 018°05'2 2.0
2017-Feb-09 17:31N 59°19' E 018°09'0 0.2
2017-Feb-09 16:33N 59°19' E 018°08'1 1.0
2017-Feb-09 15:32N 59°20' E 018°10'2 2.1
2017-Feb-09 14:33N 59°19' E 018°06'  
Track history (hours):
 
Tides and Currents Weather Stations Pressure Air Temp Water Temp Dewpoint Dewpoint Depression Visibility Wind Speed Wind Dir Waves Ship Positions

Gurli

Last reported at 2017-Feb-19 14:29 UTC. Time now 2017-Feb-19 14:36 UTC.
Position N 59°20' E 018°05'.

Length 21 m.

Type: Passenger vessel. MMSI: 265687640.

Date/timePositionNaut miles runAvg speedWind from/ knotsBaromVisibWave heightAir tempDewpointWater temp
2017-Feb-19 14:29N 59°20' E 018°05'2 2.6
2017-Feb-19 13:32N 59°20' E 018°09'2 2.4
2017-Feb-19 12:33N 59°20' E 018°05'1 1.3
2017-Feb-19 11:33N 59°19' E 018°07'1 0.8
2017-Feb-19 10:33N 59°19' E 018°09'1 0.6
2017-Feb-19 09:33N 59°19' E 018°07'1 0.9
2017-Feb-19 08:33N 59°19' E 018°09'2 2.2
2017-Feb-19 07:31N 59°20' E 018°05'0 0.0
2017-Feb-19 06:31N 59°20' E 018°05'0 0.0
2017-Feb-19 05:31N 59°20' E 018°05'0 0.0
2017-Feb-19 04:31N 59°20' E 018°05'0 0.0
2017-Feb-19 03:31N 59°20' E 018°05'0 0.0
2017-Feb-19 02:31N 59°20' E 018°05'0 0.0
2017-Feb-19 01:31N 59°20' E 018°05'0 0.0
2017-Feb-19 00:31N 59°20' E 018°05'0 0.0
2017-Feb-18 23:31N 59°20' E 018°05'0 0.0
2017-Feb-18 22:31N 59°20' E 018°05'0 0.0
2017-Feb-18 21:28N 59°20' E 018°05'0 0.0
2017-Feb-18 20:31N 59°20' E 018°05'0 0.0
2017-Feb-18 19:31N 59°20' E 018°05'0 0.2
2017-Feb-18 18:29N 59°20' E 018°05'2 2.6
2017-Feb-18 17:33N 59°20' E 018°09'2 2.3
2017-Feb-18 16:32N 59°20' E 018°05'2 2.4
2017-Feb-18 15:32N 59°20' E 018°09'2 2.4
2017-Feb-18 14:32N 59°20' E 018°05'2 2.4
2017-Feb-18 13:33N 59°20' E 018°09'2 2.4
2017-Feb-18 12:33N 59°20' E 018°05'2 1.7
2017-Feb-18 11:33N 59°19' E 018°07'0 0.4
2017-Feb-18 10:33N 59°19' E 018°08'0 0.4
2017-Feb-18 09:33N 59°19' E 018°07'1 0.7
2017-Feb-18 08:33N 59°19' E 018°09'2 2.1
2017-Feb-18 07:33N 59°20' E 018°05'0 0.0
2017-Feb-18 06:30N 59°20' E 018°05'0 0.0
2017-Feb-18 05:33N 59°20' E 018°05'0 0.0
2017-Feb-18 04:33N 59°20' E 018°05'0 0.0
2017-Feb-18 03:33N 59°20' E 018°05'0 0.0
2017-Feb-18 02:30N 59°20' E 018°05'0 0.0
2017-Feb-18 01:33N 59°20' E 018°05'0 0.0
2017-Feb-18 00:33N 59°20' E 018°05'0 0.0
2017-Feb-17 23:30N 59°20' E 018°05'0 0.0
2017-Feb-17 22:33N 59°20' E 018°05'0 0.0
2017-Feb-17 21:30N 59°20' E 018°05'0 0.0
2017-Feb-17 20:34N 59°20' E 018°05'0 0.0
2017-Feb-17 19:34N 59°20' E 018°05'0 0.0
2017-Feb-17 18:33N 59°20' E 018°05'2 1.8
2017-Feb-17 17:32N 59°19' E 018°08'0 0.0
2017-Feb-17 16:33N 59°19' E 018°08'1 0.7
2017-Feb-17 15:33N 59°19' E 018°10'2 1.6
2017-Feb-17 14:33N 59°19' E 018°06'1 1.5
2017-Feb-17 13:33N 59°19' E 018°09'1 1.4
2017-Feb-17 12:33N 59°19' E 018°07'2 1.5
2017-Feb-17 11:33N 59°19' E 018°10'2 1.5
2017-Feb-17 10:33N 59°19' E 018°07'2 1.5
2017-Feb-17 09:33N 59°19' E 018°10'1 1.5
2017-Feb-17 08:33N 59°19' E 018°07'2 1.5
2017-Feb-17 07:33N 59°20' E 018°09'2 1.6
2017-Feb-17 06:34N 59°19' E 018°07'0 0.4
2017-Feb-17 05:33N 59°19' E 018°07'1 1.4
2017-Feb-17 04:31N 59°20' E 018°05'0 0.0
2017-Feb-17 03:31N 59°20' E 018°05'0 0.0
2017-Feb-17 02:31N 59°20' E 018°05'0 0.0
2017-Feb-17 01:31N 59°20' E 018°05'0 0.0
2017-Feb-17 00:31N 59°20' E 018°05'0 0.0
2017-Feb-16 23:31N 59°20' E 018°05'0 0.0
2017-Feb-16 22:28N 59°20' E 018°05'0 0.0
2017-Feb-16 21:31N 59°20' E 018°05'0 0.0
2017-Feb-16 20:31N 59°20' E 018°05'0 0.0
2017-Feb-16 19:25N 59°20' E 018°05'0 0.0
2017-Feb-16 18:31N 59°20' E 018°05'2 1.9
2017-Feb-16 17:33N 59°19' E 018°08'0 0.0
2017-Feb-16 16:33N 59°19' E 018°08'1 1.0
2017-Feb-16 15:29N 59°20' E 018°09'2 2.0
2017-Feb-16 14:33N 59°19' E 018°06'2 1.7
2017-Feb-16 13:33N 59°19' E 018°10'2 1.5
2017-Feb-16 12:33N 59°19' E 018°07'1 1.4
2017-Feb-16 11:33N 59°19' E 018°09'1 1.4
2017-Feb-16 10:34N 59°19' E 018°07'1 1.1
2017-Feb-16 09:33N 59°19' E 018°09'1 1.1
2017-Feb-16 08:33N 59°19' E 018°07'2 1.6
2017-Feb-16 07:32N 59°20' E 018°09'2 1.6
2017-Feb-16 06:33N 59°19' E 018°07'1 0.6
2017-Feb-16 05:33N 59°19' E 018°08'2 1.5
2017-Feb-16 04:31N 59°20' E 018°05'0 0.0
2017-Feb-16 03:31N 59°20' E 018°05'0 0.0
2017-Feb-16 02:31N 59°20' E 018°05'0 0.0
2017-Feb-16 01:31N 59°20' E 018°05'0 0.0
2017-Feb-16 00:31N 59°20' E 018°05'0 0.0
2017-Feb-15 23:31N 59°20' E 018°05'0 0.0
2017-Feb-15 22:31N 59°20' E 018°05'0 0.0
2017-Feb-15 21:31N 59°20' E 018°05'0 0.0
2017-Feb-15 20:31N 59°20' E 018°05'0 0.0
2017-Feb-15 19:31N 59°20' E 018°05'0 0.0
2017-Feb-15 18:28N 59°20' E 018°05'2 2.0
2017-Feb-15 17:33N 59°19' E 018°08'0 0.0
2017-Feb-15 16:33N 59°19' E 018°08'1 0.8
2017-Feb-15 15:32N 59°20' E 018°09'2 1.8
2017-Feb-15 14:34N 59°19' E 018°06'2 1.6
2017-Feb-15 13:33N 59°19' E 018°09'1 1.4
2017-Feb-15 12:33N 59°19' E 018°07'2 1.5
2017-Feb-15 11:33N 59°19' E 018°10'1 1.5
2017-Feb-15 10:33N 59°19' E 018°07'2 1.5
2017-Feb-15 09:32N 59°19' E 018°10'2 1.5
2017-Feb-15 08:33N 59°19' E 018°07'1 1.5
2017-Feb-15 07:33N 59°19' E 018°09'2 1.6
2017-Feb-15 06:33N 59°19' E 018°06'0 0.4
2017-Feb-15 05:33N 59°19' E 018°07'1 1.4
2017-Feb-15 04:32N 59°20' E 018°05'0 0.0
2017-Feb-15 03:29N 59°20' E 018°05'0 0.0
2017-Feb-15 02:32N 59°20' E 018°05'0 0.0
2017-Feb-15 01:32N 59°20' E 018°05'0 0.0
2017-Feb-15 00:32N 59°20' E 018°05'0 0.0
2017-Feb-14 23:32N 59°20' E 018°05'0 0.0
2017-Feb-14 22:32N 59°20' E 018°05'0 0.0
2017-Feb-14 21:32N 59°20' E 018°05'0 0.0
2017-Feb-14 20:32N 59°20' E 018°05'0 0.0
2017-Feb-14 19:32N 59°20' E 018°05'0 0.0
2017-Feb-14 18:32N 59°20' E 018°05'2 1.8
2017-Feb-14 17:33N 59°19' E 018°08'0 0.1
2017-Feb-14 16:33N 59°19' E 018°08'1 0.7
2017-Feb-14 15:33N 59°19' E 018°09'2 1.7
2017-Feb-14 14:33N 59°19' E 018°06'2 1.7
2017-Feb-14 13:33N 59°19' E 018°10'2 1.8
2017-Feb-14 12:33N 59°19' E 018°06'2 1.8
2017-Feb-14 11:33N 59°19' E 018°10'2 1.5
2017-Feb-14 10:33N 59°19' E 018°07'1 1.3
2017-Feb-14 09:33N 59°19' E 018°09'1 1.3
2017-Feb-14 08:33N 59°19' E 018°07'2 1.6
2017-Feb-14 07:33N 59°20' E 018°09'2 1.8
2017-Feb-14 06:33N 59°19' E 018°06'1 0.6
2017-Feb-14 05:33N 59°19' E 018°07'1 1.4
2017-Feb-14 04:32N 59°20' E 018°05'0 0.0
2017-Feb-14 03:32N 59°20' E 018°05'0 0.0
2017-Feb-14 02:32N 59°20' E 018°05'0 0.0
2017-Feb-14 01:32N 59°20' E 018°05'0 0.0
2017-Feb-14 00:32N 59°20' E 018°05'0 0.0
2017-Feb-13 23:32N 59°20' E 018°05'0 0.0
2017-Feb-13 22:29N 59°20' E 018°05'0 0.0
2017-Feb-13 21:32N 59°20' E 018°05'0 0.0
2017-Feb-13 20:32N 59°20' E 018°05'0 0.0
2017-Feb-13 19:32N 59°20' E 018°05'0 0.0
2017-Feb-13 18:32N 59°20' E 018°05'2 1.9
2017-Feb-13 17:33N 59°19' E 018°08'0 0.2
2017-Feb-13 16:33N 59°19' E 018°08'1 1.1
2017-Feb-13 15:33N 59°20' E 018°09'2 1.7
2017-Feb-13 14:33N 59°19' E 018°06'2 1.6
2017-Feb-13 13:33N 59°19' E 018°10'2 1.7
2017-Feb-13 12:33N 59°19' E 018°06'2 1.7
2017-Feb-13 11:31N 59°20' E 018°10'2 1.9
2017-Feb-13 10:33N 59°19' E 018°06'2 1.7
2017-Feb-13 09:33N 59°19' E 018°10'2 1.5
2017-Feb-13 08:33N 59°19' E 018°07'2 1.8
2017-Feb-13 07:33N 59°20' E 018°09'2 2.0
2017-Feb-13 06:33N 59°19' E 018°06'1 0.7
2017-Feb-13 05:33N 59°19' E 018°07'1 1.4
2017-Feb-13 04:33N 59°20' E 018°05'0 0.0
2017-Feb-13 03:33N 59°20' E 018°05'0 0.0
2017-Feb-13 02:33N 59°20' E 018°05'0 0.0
2017-Feb-13 01:33N 59°20' E 018°05'0 0.0
2017-Feb-13 00:33N 59°20' E 018°05'0 0.0
2017-Feb-12 23:33N 59°20' E 018°05'0 0.0
2017-Feb-12 22:33N 59°20' E 018°05'0 0.0
2017-Feb-12 21:33N 59°20' E 018°05'0 0.0
2017-Feb-12 20:33N 59°20' E 018°05'0 0.0
2017-Feb-12 19:33N 59°20' E 018°05'0 0.3
2017-Feb-12 18:33N 59°20' E 018°05'2 2.4
2017-Feb-12 17:33N 59°20' E 018°09'2 2.4
2017-Feb-12 16:33N 59°20' E 018°05'2 2.4
2017-Feb-12 15:33N 59°20' E 018°09'2 2.3
2017-Feb-12 14:31N 59°20' E 018°05'2 2.5
2017-Feb-12 13:33N 59°21' E 018°09'2 2.4
2017-Feb-12 12:33N 59°20' E 018°05'2 1.6
2017-Feb-12 11:33N 59°19' E 018°07'0 0.4
2017-Feb-12 10:33N 59°19' E 018°08'1 0.7
2017-Feb-12 09:33N 59°19' E 018°07'1 0.7
2017-Feb-12 08:33N 59°19' E 018°08'2 1.8
2017-Feb-12 07:33N 59°20' E 018°05'0 0.0
2017-Feb-12 06:33N 59°20' E 018°05'0 0.0
2017-Feb-12 05:33N 59°20' E 018°05'0 0.0
2017-Feb-12 04:33N 59°20' E 018°05'0 0.0
2017-Feb-12 03:33N 59°20' E 018°05'0 0.0
2017-Feb-12 02:33N 59°20' E 018°05'0 0.0
2017-Feb-12 01:33N 59°20' E 018°05'0 0.0
2017-Feb-12 00:33N 59°20' E 018°05'0 0.0
2017-Feb-11 23:33N 59°20' E 018°05'0 0.0
2017-Feb-11 22:33N 59°20' E 018°05'0 0.0
2017-Feb-11 21:33N 59°20' E 018°05'0 0.0
2017-Feb-11 20:33N 59°20' E 018°05'0 0.0
2017-Feb-11 19:33N 59°20' E 018°05'0 0.2
2017-Feb-11 18:31N 59°20' E 018°05'2 2.5
2017-Feb-11 17:33N 59°20' E 018°09'2 2.3
2017-Feb-11 16:31N 59°20' E 018°05'2 2.5
2017-Feb-11 15:33N 59°20' E 018°09'2 2.4
2017-Feb-11 14:32N 59°20' E 018°05'2 2.5
2017-Feb-11 13:33N 59°20' E 018°09'2 2.4
2017-Feb-11 12:33N 59°20' E 018°05'1 1.3
2017-Feb-11 11:33N 59°19' E 018°07'1 0.6
2017-Feb-11 10:33N 59°19' E 018°08'1 0.5
2017-Feb-11 09:33N 59°19' E 018°07'0 0.5
2017-Feb-11 08:33N 59°19' E 018°08'2 1.8
2017-Feb-11 07:33N 59°20' E 018°05'0 0.0
2017-Feb-11 06:33N 59°20' E 018°05'0 0.0
2017-Feb-11 05:33N 59°20' E 018°05'0 0.0
2017-Feb-11 04:33N 59°20' E 018°05'0 0.0
2017-Feb-11 03:33N 59°20' E 018°05'0 0.0
2017-Feb-11 02:33N 59°20' E 018°05'0 0.0
2017-Feb-11 01:33N 59°20' E 018°05'0 0.0
2017-Feb-11 00:33N 59°20' E 018°05'0 0.0
2017-Feb-10 23:30N 59°20' E 018°05'0 0.0
2017-Feb-10 22:34N 59°20' E 018°05'0 0.0
2017-Feb-10 21:30N 59°20' E 018°05'0 0.0
2017-Feb-10 20:33N 59°20' E 018°05'0 0.0
2017-Feb-10 19:34N 59°20' E 018°05'0 0.0
2017-Feb-10 18:34N 59°20' E 018°05'2 1.8
2017-Feb-10 17:33N 59°19' E 018°08'0 0.1
2017-Feb-10 16:33N 59°19' E 018°08'1 0.9
2017-Feb-10 15:33N 59°19' E 018°10'2 1.8
2017-Feb-10 14:33N 59°19' E 018°06'2 1.7
2017-Feb-10 13:33N 59°19' E 018°09'1 1.5
2017-Feb-10 12:33N 59°19' E 018°07'1 1.3
2017-Feb-10 11:33N 59°19' E 018°09'1 1.3
2017-Feb-10 10:33N 59°19' E 018°07'2 1.5
2017-Feb-10 09:32N 59°19' E 018°10'2 1.5
2017-Feb-10 08:33N 59°19' E 018°07'2 1.6
2017-Feb-10 07:34N 59°19' E 018°10'2 1.6
2017-Feb-10 06:33N 59°19' E 018°06'0 0.3
2017-Feb-10 05:33N 59°19' E 018°07'1 1.3
2017-Feb-10 04:31N 59°20' E 018°05'0 0.0
2017-Feb-10 03:31N 59°20' E 018°05'0 0.0
2017-Feb-10 02:31N 59°20' E 018°05'0 0.0
2017-Feb-10 01:31N 59°20' E 018°05'0 0.0
2017-Feb-10 00:31N 59°20' E 018°05'0 0.0
2017-Feb-09 23:31N 59°20' E 018°05'0 0.0
2017-Feb-09 22:31N 59°20' E 018°05'0 0.0
2017-Feb-09 21:31N 59°20' E 018°05'0 0.0
2017-Feb-09 20:31N 59°20' E 018°05'0 0.0
2017-Feb-09 19:31N 59°20' E 018°05'0 0.0
2017-Feb-09 18:31N 59°20' E 018°05'2 2.0
2017-Feb-09 17:31N 59°19' E 018°09'0 0.2
2017-Feb-09 16:33N 59°19' E 018°08'1 1.0
2017-Feb-09 15:32N 59°20' E 018°10'2 2.1
2017-Feb-09 14:33N 59°19' E 018°06'  

Dump ship's entire track history